createdAt,value
2023-05-14T00:00:01.135Z,12.16
2023-05-14T00:01:01.113Z,12.12
2023-05-14T00:02:01.126Z,12.09
2023-05-14T00:03:01.174Z,12.08
2023-05-14T00:04:01.185Z,12.06
2023-05-14T00:05:01.163Z,12.05
2023-05-14T00:06:01.051Z,12.09
2023-05-14T00:07:01.011Z,12.13
2023-05-14T00:08:01.012Z,12.13
2023-05-14T00:09:01.014Z,12.13
2023-05-14T00:10:00.977Z,12.15
2023-05-14T00:11:00.963Z,12.16
2023-05-14T00:12:00.973Z,12.19
2023-05-14T00:13:00.965Z,12.16
2023-05-14T00:14:00.947Z,12.15
2023-05-14T00:15:00.914Z,12.12
2023-05-14T00:16:00.984Z,12.09
2023-05-14T00:17:00.900Z,12.04
2023-05-14T00:18:00.959Z,11.93
2023-05-14T00:19:00.949Z,11.85
2023-05-14T00:20:00.873Z,11.78
2023-05-14T00:21:00.854Z,11.74
2023-05-14T00:22:00.845Z,11.70
2023-05-14T00:23:00.838Z,11.70
2023-05-14T00:24:00.839Z,11.67
2023-05-14T00:25:00.815Z,11.68
2023-05-14T00:26:00.794Z,11.67
2023-05-14T00:27:00.753Z,11.67
2023-05-14T00:28:00.794Z,11.62
2023-05-14T00:29:00.763Z,11.59
2023-05-14T00:30:00.823Z,11.61
2023-05-14T00:31:00.766Z,11.64
2023-05-14T00:32:00.733Z,11.67
2023-05-14T00:33:00.730Z,11.68
2023-05-14T00:34:00.718Z,11.68
2023-05-14T00:35:00.703Z,11.68
2023-05-14T00:36:00.689Z,11.71
2023-05-14T00:37:00.637Z,11.65
2023-05-14T00:38:00.643Z,11.59
2023-05-14T00:39:00.623Z,11.50
2023-05-14T00:40:00.670Z,11.43
2023-05-14T00:41:00.577Z,11.39
2023-05-14T00:42:00.607Z,11.36
2023-05-14T00:43:00.556Z,11.34
2023-05-14T00:44:00.574Z,11.31
2023-05-14T00:45:00.586Z,11.31
2023-05-14T00:46:00.540Z,11.32
2023-05-14T00:47:00.722Z,11.32
2023-05-14T00:48:00.521Z,11.31
2023-05-14T00:49:00.479Z,11.25
2023-05-14T00:50:00.493Z,11.21
2023-05-14T00:51:00.473Z,11.20
2023-05-14T00:52:00.455Z,11.19
2023-05-14T00:53:00.437Z,11.20
2023-05-14T00:54:00.433Z,11.24
2023-05-14T00:55:00.439Z,11.21
2023-05-14T00:56:00.431Z,11.27
2023-05-14T00:57:00.392Z,11.27
2023-05-14T00:58:00.378Z,11.21
2023-05-14T00:59:00.392Z,11.17
2023-05-14T01:00:00.373Z,11.16
2023-05-14T01:01:00.428Z,11.16
2023-05-14T01:02:00.338Z,11.16
2023-05-14T01:03:00.334Z,11.13
2023-05-14T01:04:00.430Z,11.13
2023-05-14T01:05:00.289Z,11.16
2023-05-14T01:06:00.275Z,11.20
2023-05-14T01:07:00.268Z,11.20
2023-05-14T01:08:00.240Z,11.20
2023-05-14T01:09:00.249Z,11.19
2023-05-14T01:10:00.228Z,11.14
2023-05-14T01:11:00.209Z,11.09
2023-05-14T01:12:00.225Z,11.09
2023-05-14T01:13:00.180Z,11.07
2023-05-14T01:14:00.163Z,11.09
2023-05-14T01:15:00.174Z,11.09
2023-05-14T01:16:00.235Z,11.07
2023-05-14T01:17:00.184Z,11.03
2023-05-14T01:18:00.172Z,11.03
2023-05-14T01:19:00.169Z,11.02
2023-05-14T01:20:00.170Z,10.99
2023-05-14T01:21:00.071Z,10.98
2023-05-14T01:22:00.090Z,10.95
2023-05-14T01:23:00.114Z,10.96
2023-05-14T01:24:00.046Z,10.92
2023-05-14T01:25:00.028Z,10.84
2023-05-14T01:26:00.014Z,10.81
2023-05-14T01:27:00.013Z,10.76
2023-05-14T01:28:00.009Z,10.76
2023-05-14T01:28:59.992Z,10.74
2023-05-14T01:29:59.961Z,10.80
2023-05-14T01:30:59.941Z,10.84
2023-05-14T01:32:00.061Z,10.88
2023-05-14T01:33:00.019Z,10.91
2023-05-14T01:33:59.907Z,10.92
2023-05-14T01:34:59.893Z,10.92
2023-05-14T01:35:59.909Z,10.92
2023-05-14T01:36:59.873Z,10.92
2023-05-14T01:37:59.841Z,10.91
2023-05-14T01:38:59.838Z,10.89
2023-05-14T01:39:59.864Z,10.84
2023-05-14T01:40:59.815Z,10.78
2023-05-14T01:41:59.796Z,10.73
2023-05-14T01:42:59.848Z,10.65
2023-05-14T01:43:59.773Z,10.60
2023-05-14T01:44:59.788Z,10.53
2023-05-14T01:45:59.823Z,10.44
2023-05-14T01:46:59.756Z,10.40
2023-05-14T01:47:59.747Z,10.39
2023-05-14T01:48:59.705Z,10.39
2023-05-14T01:49:59.693Z,10.42
2023-05-14T01:50:59.674Z,10.43
2023-05-14T01:51:59.676Z,10.43
2023-05-14T01:52:59.647Z,10.43
2023-05-14T01:53:59.627Z,10.39
2023-05-14T01:54:59.634Z,10.37
2023-05-14T01:55:59.615Z,10.39
2023-05-14T01:56:59.600Z,10.39
2023-05-14T01:57:59.589Z,10.42
2023-05-14T01:58:59.599Z,10.44
2023-05-14T01:59:59.556Z,10.47
2023-05-14T02:00:59.598Z,10.53
2023-05-14T02:01:59.633Z,10.55
2023-05-14T02:02:59.560Z,10.58
2023-05-14T02:03:59.550Z,10.62
2023-05-14T02:04:59.515Z,10.62
2023-05-14T02:05:59.500Z,10.62
2023-05-14T02:06:59.501Z,10.63
2023-05-14T02:07:59.469Z,10.68
2023-05-14T02:08:59.448Z,10.73
2023-05-14T02:09:59.433Z,10.77
2023-05-14T02:10:59.431Z,10.77
2023-05-14T02:11:59.413Z,10.81
2023-05-14T02:12:59.417Z,10.84
2023-05-14T02:13:59.376Z,10.91
2023-05-14T02:14:59.362Z,10.95
2023-05-14T02:15:59.391Z,11.02
2023-05-14T02:16:59.336Z,11.06
2023-05-14T02:17:59.395Z,11.10
2023-05-14T02:18:59.372Z,11.09
2023-05-14T02:19:59.347Z,11.13
2023-05-14T02:20:59.299Z,11.16
2023-05-14T02:21:59.288Z,11.19
2023-05-14T02:22:59.257Z,11.21
2023-05-14T02:23:59.273Z,11.19
2023-05-14T02:24:59.229Z,11.24
2023-05-14T02:25:59.291Z,11.25
2023-05-14T02:26:59.217Z,11.27
2023-05-14T02:27:59.221Z,11.28
2023-05-14T02:28:59.173Z,11.31
2023-05-14T02:29:59.180Z,11.35
2023-05-14T02:30:59.185Z,11.35
2023-05-14T02:31:59.199Z,11.39
2023-05-14T02:32:59.276Z,11.39
2023-05-14T02:33:59.139Z,11.44
2023-05-14T02:34:59.118Z,11.46
2023-05-14T02:35:59.081Z,11.49
2023-05-14T02:36:59.095Z,11.50
2023-05-14T02:37:59.065Z,11.52
2023-05-14T02:38:59.090Z,11.54
2023-05-14T02:39:59.098Z,11.56
2023-05-14T02:40:59.032Z,11.57
2023-05-14T02:41:59.084Z,11.59
2023-05-14T02:42:59.007Z,11.61
2023-05-14T02:43:59.010Z,11.64
2023-05-14T02:44:59.044Z,11.67
2023-05-14T02:45:59.076Z,11.70
2023-05-14T02:46:58.989Z,11.74
2023-05-14T02:47:59.000Z,11.77
2023-05-14T02:48:58.933Z,11.78
2023-05-14T02:49:58.900Z,11.83
2023-05-14T02:50:58.919Z,11.86
2023-05-14T02:51:58.899Z,11.87
2023-05-14T02:52:58.899Z,11.87
2023-05-14T02:53:58.864Z,11.87
2023-05-14T02:54:58.851Z,11.90
2023-05-14T02:55:58.819Z,11.94
2023-05-14T02:56:58.834Z,11.99
2023-05-14T02:57:58.825Z,12.01
2023-05-14T02:58:58.822Z,12.04
2023-05-14T02:59:58.788Z,12.05
2023-05-14T03:00:58.832Z,12.06
2023-05-14T03:01:58.837Z,12.09
2023-05-14T03:03:05.819Z,12.12
2023-05-14T03:03:58.735Z,12.15
2023-05-14T03:04:58.734Z,12.13
2023-05-14T03:05:58.690Z,12.08
2023-05-14T03:06:58.702Z,12.09
2023-05-14T03:07:58.692Z,12.08
2023-05-14T03:08:58.684Z,12.09
2023-05-14T03:09:58.657Z,12.11
2023-05-14T03:10:58.654Z,12.09
2023-05-14T03:11:58.637Z,12.05
2023-05-14T03:12:58.605Z,11.97
2023-05-14T03:13:58.605Z,11.94
2023-05-14T03:14:58.611Z,11.85
2023-05-14T03:15:58.578Z,11.82
2023-05-14T03:16:58.634Z,11.78
2023-05-14T03:17:58.600Z,11.75
2023-05-14T03:19:05.689Z,11.72
2023-05-14T03:19:58.543Z,11.74
2023-05-14T03:20:58.510Z,11.72
2023-05-14T03:21:58.488Z,11.71
2023-05-14T03:22:58.500Z,11.71
2023-05-14T03:23:58.469Z,11.74
2023-05-14T03:24:58.482Z,11.72
2023-05-14T03:25:58.460Z,11.74
2023-05-14T03:26:58.450Z,11.74
2023-05-14T03:27:58.435Z,11.78
2023-05-14T03:28:58.425Z,11.80
2023-05-14T03:29:58.390Z,11.82
2023-05-14T03:30:58.449Z,11.86
2023-05-14T03:31:58.415Z,11.93
2023-05-14T03:32:58.398Z,11.97
2023-05-14T03:33:58.360Z,12.02
2023-05-14T03:34:58.352Z,12.05
2023-05-14T03:35:58.346Z,12.08
2023-05-14T03:36:58.310Z,12.11
2023-05-14T03:37:58.326Z,12.16
2023-05-14T03:38:58.310Z,12.20
2023-05-14T03:39:58.267Z,12.20
2023-05-14T03:40:58.273Z,12.26
2023-05-14T03:41:58.293Z,12.26
2023-05-14T03:42:58.232Z,12.26
2023-05-14T03:43:58.211Z,12.19
2023-05-14T03:44:58.212Z,12.15
2023-05-14T03:45:58.196Z,12.11
2023-05-14T03:46:58.218Z,12.08
2023-05-14T03:47:58.295Z,12.05
2023-05-14T03:48:58.288Z,11.97
2023-05-14T03:49:58.135Z,11.90
2023-05-14T03:50:58.131Z,11.87
2023-05-14T03:51:58.129Z,11.85
2023-05-14T03:52:58.163Z,11.87
2023-05-14T03:53:58.113Z,11.89
2023-05-14T03:54:58.092Z,11.94
2023-05-14T03:55:58.059Z,11.94
2023-05-14T03:56:58.054Z,11.97
2023-05-14T03:57:58.058Z,11.97
2023-05-14T03:58:58.067Z,11.97
2023-05-14T03:59:58.017Z,12.02
2023-05-14T04:00:58.004Z,12.05
2023-05-14T04:01:58.002Z,12.09
2023-05-14T04:02:58.063Z,12.13
2023-05-14T04:03:58.104Z,12.21
2023-05-14T04:04:58.000Z,12.24
2023-05-14T04:05:58.003Z,12.27
2023-05-14T04:06:57.951Z,12.30
2023-05-14T04:07:58.025Z,12.37
2023-05-14T04:08:57.930Z,12.37
2023-05-14T04:09:57.900Z,12.34
2023-05-14T04:10:57.914Z,12.30
2023-05-14T04:11:57.952Z,12.27
2023-05-14T04:12:57.959Z,12.30
2023-05-14T04:13:57.862Z,12.33
2023-05-14T04:14:57.855Z,12.39
2023-05-14T04:15:57.883Z,12.41
2023-05-14T04:16:59.485Z,12.46
2023-05-14T04:17:57.944Z,12.48
2023-05-14T04:18:57.825Z,12.49
2023-05-14T04:19:57.786Z,12.51
2023-05-14T04:20:57.760Z,12.52
2023-05-14T04:21:57.774Z,12.52
2023-05-14T04:22:57.722Z,12.56
2023-05-14T04:23:57.707Z,12.56
2023-05-14T04:24:57.724Z,12.54
2023-05-14T04:25:57.702Z,12.57
2023-05-14T04:26:57.683Z,12.60
2023-05-14T04:27:57.681Z,12.64
2023-05-14T04:28:57.673Z,12.70
2023-05-14T04:29:57.634Z,12.77
2023-05-14T04:30:57.611Z,12.84
2023-05-14T04:31:57.633Z,12.88
2023-05-14T04:32:57.648Z,12.93
2023-05-14T04:33:57.584Z,13.00
2023-05-14T04:34:57.560Z,13.04
2023-05-14T04:35:57.562Z,13.12
2023-05-14T04:36:57.566Z,13.15
2023-05-14T04:37:57.527Z,13.20
2023-05-14T04:38:57.525Z,13.21
2023-05-14T04:39:57.525Z,13.25
2023-05-14T04:40:57.490Z,13.27
2023-05-14T04:41:57.489Z,13.29
2023-05-14T04:42:57.461Z,13.33
2023-05-14T04:43:57.485Z,13.33
2023-05-14T04:44:57.477Z,13.37
2023-05-14T04:45:57.437Z,13.41
2023-05-14T04:46:57.422Z,13.43
2023-05-14T04:47:57.412Z,13.47
2023-05-14T04:48:57.385Z,13.49
2023-05-14T04:49:57.389Z,13.49
2023-05-14T04:50:57.370Z,13.49
2023-05-14T04:51:57.359Z,13.49
2023-05-14T04:52:57.344Z,13.49
2023-05-14T04:53:57.335Z,13.46
2023-05-14T04:54:57.434Z,13.41
2023-05-14T04:55:57.303Z,13.36
2023-05-14T04:56:57.272Z,13.33
2023-05-14T04:57:57.348Z,13.30
2023-05-14T04:58:57.275Z,13.27
2023-05-14T04:59:57.267Z,13.27
2023-05-14T05:00:57.281Z,13.24
2023-05-14T05:01:57.225Z,13.24
2023-05-14T05:02:57.248Z,13.22
2023-05-14T05:03:57.234Z,13.22
2023-05-14T05:04:57.174Z,13.21
2023-05-14T05:05:57.179Z,13.21
2023-05-14T05:06:57.208Z,13.25
2023-05-14T05:07:57.141Z,13.29
2023-05-14T05:08:57.125Z,13.36
2023-05-14T05:09:57.105Z,13.40
2023-05-14T05:10:57.097Z,13.46
2023-05-14T05:11:57.178Z,13.55
2023-05-14T05:12:57.079Z,13.61
2023-05-14T05:13:57.086Z,13.69
2023-05-14T05:14:57.037Z,13.79
2023-05-14T05:15:57.107Z,13.84
2023-05-14T05:16:57.079Z,13.94
2023-05-14T05:17:57.066Z,14.01
2023-05-14T05:18:57.056Z,14.09
2023-05-14T05:19:56.978Z,14.13
2023-05-14T05:20:57.002Z,14.13
2023-05-14T05:21:56.956Z,14.14
2023-05-14T05:22:56.955Z,14.20
2023-05-14T05:23:56.937Z,14.21
2023-05-14T05:24:56.937Z,14.25
2023-05-14T05:25:56.910Z,14.28
2023-05-14T05:26:56.901Z,14.31
2023-05-14T05:27:56.909Z,14.32
2023-05-14T05:28:56.893Z,14.34
2023-05-14T05:29:56.851Z,14.37
2023-05-14T05:30:56.909Z,14.42
2023-05-14T05:31:56.851Z,14.43
2023-05-14T05:32:56.904Z,14.47
2023-05-14T05:33:56.849Z,14.52
2023-05-14T05:34:56.868Z,14.53
2023-05-14T05:35:56.797Z,14.57
2023-05-14T05:36:56.758Z,14.65
2023-05-14T05:37:57.396Z,14.68
2023-05-14T05:38:56.769Z,14.75
2023-05-14T05:39:56.731Z,14.84
2023-05-14T05:40:56.764Z,14.88
2023-05-14T05:41:56.716Z,14.94
2023-05-14T05:42:56.681Z,15.01
2023-05-14T05:43:56.688Z,15.03
2023-05-14T05:44:56.687Z,15.09
2023-05-14T05:45:56.641Z,15.13
2023-05-14T05:46:56.770Z,15.20
2023-05-14T05:47:56.687Z,15.26
2023-05-14T05:48:56.691Z,15.31
2023-05-14T05:49:56.583Z,15.36
2023-05-14T05:50:56.594Z,15.41
2023-05-14T05:51:56.588Z,15.45
2023-05-14T05:52:56.576Z,15.49
2023-05-14T05:53:56.549Z,15.52
2023-05-14T05:54:56.538Z,15.57
2023-05-14T05:55:56.543Z,15.57
2023-05-14T05:56:56.529Z,15.61
2023-05-14T05:57:56.558Z,15.61
2023-05-14T05:58:56.574Z,15.66
2023-05-14T05:59:56.486Z,15.68
2023-05-14T06:00:56.476Z,15.74
2023-05-14T06:01:56.496Z,15.76
2023-05-14T06:02:56.531Z,15.78
2023-05-14T06:03:56.432Z,15.82
2023-05-14T06:04:56.410Z,15.85
2023-05-14T06:05:56.400Z,15.89
2023-05-14T06:06:56.407Z,15.89
2023-05-14T06:07:56.375Z,15.96
2023-05-14T06:08:56.356Z,15.99
2023-05-14T06:09:56.424Z,16.03
2023-05-14T06:10:56.351Z,16.06
2023-05-14T06:11:56.348Z,16.07
2023-05-14T06:12:56.304Z,16.11
2023-05-14T06:13:56.294Z,16.12
2023-05-14T06:14:56.268Z,16.14
2023-05-14T06:15:56.260Z,16.15
2023-05-14T06:16:56.306Z,16.18
2023-05-14T06:17:56.269Z,16.18
2023-05-14T06:18:56.600Z,16.22
2023-05-14T06:19:56.226Z,16.23
2023-05-14T06:20:56.216Z,16.26
2023-05-14T06:21:56.232Z,16.30
2023-05-14T06:22:56.175Z,16.34
2023-05-14T06:23:56.167Z,16.38
2023-05-14T06:24:56.161Z,16.44
2023-05-14T06:25:56.142Z,16.49
2023-05-14T06:26:56.129Z,16.52
2023-05-14T06:27:56.131Z,16.60
2023-05-14T06:28:56.091Z,16.63
2023-05-14T06:29:56.089Z,16.70
2023-05-14T06:30:56.082Z,16.74
2023-05-14T06:31:56.111Z,16.78
2023-05-14T06:32:56.626Z,16.80
2023-05-14T06:33:56.042Z,16.85
2023-05-14T06:34:56.012Z,16.89
2023-05-14T06:35:56.024Z,16.95
2023-05-14T06:36:56.004Z,17.04
2023-05-14T06:37:55.986Z,17.08
2023-05-14T06:38:55.976Z,17.13
2023-05-14T06:39:57.752Z,17.17
2023-05-14T06:40:56.756Z,17.22
2023-05-14T06:41:55.954Z,17.29
2023-05-14T06:42:55.967Z,17.35
2023-05-14T06:43:55.908Z,17.41
2023-05-14T06:44:55.896Z,17.47
2023-05-14T06:45:55.923Z,17.51
2023-05-14T06:46:55.858Z,17.55
2023-05-14T06:47:55.928Z,17.59
2023-05-14T06:48:57.963Z,17.66
2023-05-14T06:49:55.848Z,17.67
2023-05-14T06:50:55.834Z,17.70
2023-05-14T06:51:55.797Z,17.74
2023-05-14T06:52:55.810Z,17.78
2023-05-14T06:53:55.767Z,17.82
2023-05-14T06:54:55.771Z,17.87
2023-05-14T06:55:55.778Z,17.88
2023-05-14T06:56:55.735Z,17.92
2023-05-14T06:57:55.721Z,17.94
2023-05-14T06:58:55.794Z,17.95
2023-05-14T06:59:55.702Z,18.00
2023-05-14T07:00:55.682Z,18.03
2023-05-14T07:01:55.770Z,18.07
2023-05-14T07:02:55.738Z,18.10
2023-05-14T07:03:55.666Z,18.15
2023-05-14T07:04:55.656Z,18.18
2023-05-14T07:05:55.637Z,18.21
2023-05-14T07:06:55.615Z,18.27
2023-05-14T07:07:55.608Z,18.31
2023-05-14T07:08:55.588Z,18.33
2023-05-14T07:09:55.572Z,18.37
2023-05-14T07:10:55.575Z,18.40
2023-05-14T07:11:55.565Z,18.44
2023-05-14T07:12:55.528Z,18.49
2023-05-14T07:13:55.537Z,18.58
2023-05-14T07:14:55.511Z,18.64
2023-05-14T07:15:55.520Z,18.73
2023-05-14T07:16:55.537Z,18.80
2023-05-14T07:17:55.587Z,18.87
2023-05-14T07:18:55.547Z,18.97
2023-05-14T07:19:55.455Z,19.01
2023-05-14T07:20:55.444Z,19.11
2023-05-14T07:21:55.428Z,19.15
2023-05-14T07:22:55.400Z,19.20
2023-05-14T07:23:55.394Z,19.25
2023-05-14T07:24:55.387Z,19.29
2023-05-14T07:25:55.355Z,19.33
2023-05-14T07:26:55.362Z,19.36
2023-05-14T07:27:55.319Z,19.33
2023-05-14T07:28:55.309Z,19.36
2023-05-14T07:29:55.335Z,19.39
2023-05-14T07:30:55.299Z,19.40
2023-05-14T07:31:55.292Z,19.43
2023-05-14T07:32:55.361Z,19.47
2023-05-14T07:33:55.248Z,19.55
2023-05-14T07:34:55.268Z,19.61
2023-05-14T07:35:55.236Z,19.69
2023-05-14T07:36:55.241Z,19.70
2023-05-14T07:37:55.218Z,19.72
2023-05-14T07:38:55.198Z,19.75
2023-05-14T07:39:55.186Z,19.80
2023-05-14T07:40:55.161Z,19.83
2023-05-14T07:41:55.165Z,19.84
2023-05-14T07:42:55.144Z,19.84
2023-05-14T07:43:55.134Z,19.84
2023-05-14T07:44:55.116Z,19.87
2023-05-14T07:45:55.115Z,19.93
2023-05-14T07:46:55.130Z,19.95
2023-05-14T07:47:55.234Z,19.98
2023-05-14T07:48:55.078Z,19.98
2023-05-14T07:49:55.048Z,20.02
2023-05-14T07:50:55.062Z,20.03
2023-05-14T07:51:55.055Z,20.06
2023-05-14T07:52:55.033Z,20.10
2023-05-14T07:53:55.010Z,20.12
2023-05-14T07:54:55.001Z,20.15
2023-05-14T07:55:54.999Z,20.20
2023-05-14T07:56:54.994Z,20.21
2023-05-14T07:57:54.948Z,20.27
2023-05-14T07:58:54.961Z,20.31
2023-05-14T07:59:54.948Z,20.33
2023-05-14T08:00:54.917Z,20.34
2023-05-14T08:01:54.955Z,20.35
2023-05-14T08:02:55.092Z,20.43
2023-05-14T08:03:55.002Z,20.49
2023-05-14T08:04:54.874Z,20.49
2023-05-14T08:05:54.868Z,20.50
2023-05-14T08:06:54.831Z,20.56
2023-05-14T08:07:54.835Z,20.64
2023-05-14T08:08:54.828Z,20.65
2023-05-14T08:09:54.813Z,20.66
2023-05-14T08:10:54.840Z,20.72
2023-05-14T08:11:54.784Z,20.74
2023-05-14T08:12:54.808Z,20.76
2023-05-14T08:13:54.787Z,20.81
2023-05-14T08:14:54.767Z,20.74
2023-05-14T08:15:54.715Z,20.80
2023-05-14T08:16:54.768Z,20.86
2023-05-14T08:17:54.948Z,20.93
2023-05-14T08:18:54.860Z,21.04
2023-05-14T08:19:54.664Z,21.14
2023-05-14T08:20:54.686Z,21.26
2023-05-14T08:21:54.655Z,21.38
2023-05-14T08:22:54.624Z,21.42
2023-05-14T08:23:54.618Z,21.48
2023-05-14T08:24:54.617Z,21.60
2023-05-14T08:25:54.594Z,21.61
2023-05-14T08:26:54.618Z,21.67
2023-05-14T08:27:54.576Z,21.67
2023-05-14T08:28:54.569Z,21.71
2023-05-14T08:29:54.530Z,21.76
2023-05-14T08:30:54.567Z,21.81
2023-05-14T08:31:54.515Z,21.92
2023-05-14T08:32:54.526Z,21.92
2023-05-14T08:33:54.499Z,22.01
2023-05-14T08:34:54.467Z,22.04
2023-05-14T08:35:54.458Z,22.09
2023-05-14T08:36:54.488Z,22.14
2023-05-14T08:37:54.447Z,22.16
2023-05-14T08:38:54.428Z,22.23
2023-05-14T08:39:54.433Z,22.14
2023-05-14T08:40:54.408Z,22.19
2023-05-14T08:41:54.394Z,22.19
2023-05-14T08:42:54.375Z,22.20
2023-05-14T08:43:54.347Z,22.23
2023-05-14T08:44:54.352Z,22.28
2023-05-14T08:45:54.335Z,22.37
2023-05-14T08:46:54.315Z,22.41
2023-05-14T08:47:54.372Z,22.47
2023-05-14T08:48:54.337Z,22.54
2023-05-14T08:49:54.284Z,22.65
2023-05-14T08:50:54.278Z,22.75
2023-05-14T08:51:54.245Z,22.75
2023-05-14T08:52:54.254Z,22.84
2023-05-14T08:53:54.224Z,22.92
2023-05-14T08:54:54.214Z,22.97
2023-05-14T08:55:54.210Z,23.02
2023-05-14T08:56:54.193Z,23.04
2023-05-14T08:57:54.194Z,23.04
2023-05-14T08:58:54.158Z,23.01
2023-05-14T08:59:54.190Z,22.96
2023-05-14T09:00:54.161Z,22.94
2023-05-14T09:01:54.196Z,22.93
2023-05-14T09:02:54.175Z,22.78
2023-05-14T09:03:54.129Z,22.71
2023-05-14T09:04:54.083Z,22.74
2023-05-14T09:05:54.062Z,22.89
2023-05-14T09:06:54.066Z,23.02
2023-05-14T09:07:54.046Z,23.07
2023-05-14T09:08:54.054Z,23.20
2023-05-14T09:09:54.023Z,23.23
2023-05-14T09:10:53.998Z,23.32
2023-05-14T09:11:54.000Z,23.42
2023-05-14T09:12:53.979Z,23.43
2023-05-14T09:13:53.975Z,23.40
2023-05-14T09:14:53.963Z,23.40
2023-05-14T09:15:54.004Z,23.43
2023-05-14T09:16:54.007Z,23.29
2023-05-14T09:17:53.959Z,23.19
2023-05-14T09:19:01.052Z,22.94
2023-05-14T09:19:53.885Z,22.87
2023-05-14T09:20:53.875Z,22.92
2023-05-14T09:21:53.873Z,22.93
2023-05-14T09:22:53.930Z,22.89
2023-05-14T09:23:53.854Z,22.82
2023-05-14T09:24:53.859Z,22.75
2023-05-14T09:25:53.806Z,22.75
2023-05-14T09:26:53.850Z,22.71
2023-05-14T09:27:53.780Z,22.69
2023-05-14T09:28:53.782Z,22.59
2023-05-14T09:29:53.746Z,22.60
2023-05-14T09:30:53.773Z,22.57
2023-05-14T09:31:53.815Z,22.54
2023-05-14T09:32:53.900Z,22.54
2023-05-14T09:33:53.712Z,22.57
2023-05-14T09:34:53.783Z,22.60
2023-05-14T09:35:53.703Z,22.67
2023-05-14T09:36:53.679Z,22.74
2023-05-14T09:37:53.690Z,22.82
2023-05-14T09:38:53.666Z,22.77
2023-05-14T09:39:53.660Z,22.78
2023-05-14T09:40:53.624Z,22.75
2023-05-14T09:41:53.675Z,22.75
2023-05-14T09:42:53.597Z,22.78
2023-05-14T09:43:53.595Z,22.80
2023-05-14T09:44:53.750Z,22.75
2023-05-14T09:45:53.577Z,22.82
2023-05-14T09:46:53.609Z,22.77
2023-05-14T09:47:53.744Z,22.74
2023-05-14T09:48:53.538Z,22.71
2023-05-14T09:49:53.518Z,22.72
2023-05-14T09:50:53.513Z,22.72
2023-05-14T09:51:53.499Z,22.71
2023-05-14T09:52:53.464Z,22.71
2023-05-14T09:53:53.451Z,22.72
2023-05-14T09:54:53.462Z,22.72
2023-05-14T09:55:53.471Z,22.75
2023-05-14T09:56:55.644Z,22.82
2023-05-14T09:57:53.413Z,22.86
2023-05-14T09:58:53.394Z,22.89
2023-05-14T09:59:53.369Z,22.94
2023-05-14T10:00:53.400Z,22.99
2023-05-14T10:01:53.389Z,22.99
2023-05-14T10:02:53.515Z,23.02
2023-05-14T10:03:53.367Z,22.97
2023-05-14T10:04:53.461Z,23.04
2023-05-14T10:05:53.353Z,23.11
2023-05-14T10:06:53.294Z,23.07
2023-05-14T10:07:53.258Z,22.96
2023-05-14T10:08:53.268Z,22.82
2023-05-14T10:09:53.253Z,22.93
2023-05-14T10:10:53.249Z,23.01
2023-05-14T10:11:53.245Z,23.12
2023-05-14T10:12:53.214Z,23.14
2023-05-14T10:13:53.227Z,23.08
2023-05-14T10:14:53.198Z,23.02
2023-05-14T10:15:53.186Z,23.02
2023-05-14T10:16:53.262Z,23.11
2023-05-14T10:17:53.197Z,23.19
2023-05-14T10:18:54.182Z,23.34
2023-05-14T10:19:53.157Z,23.39
2023-05-14T10:20:53.155Z,23.31
2023-05-14T10:21:53.153Z,23.24
2023-05-14T10:22:53.086Z,23.09
2023-05-14T10:23:53.049Z,22.97
2023-05-14T10:24:53.060Z,22.92
2023-05-14T10:25:53.046Z,22.93
2023-05-14T10:26:53.103Z,22.96
2023-05-14T10:27:53.017Z,23.09
2023-05-14T10:28:53.015Z,23.11
2023-05-14T10:29:53.009Z,23.20
2023-05-14T10:30:53.075Z,23.32
2023-05-14T10:31:52.967Z,23.32
2023-05-14T10:32:53.005Z,23.24
2023-05-14T10:33:52.928Z,23.19
2023-05-14T10:34:53.020Z,23.11
2023-05-14T10:35:52.915Z,23.02
2023-05-14T10:36:52.904Z,22.87
2023-05-14T10:37:52.912Z,22.78
2023-05-14T10:38:52.911Z,22.69
2023-05-14T10:39:52.957Z,22.62
2023-05-14T10:40:54.214Z,22.57
2023-05-14T10:41:52.831Z,22.52
2023-05-14T10:42:52.831Z,22.41
2023-05-14T10:43:52.833Z,22.31
2023-05-14T10:44:52.805Z,22.23
2023-05-14T10:45:52.781Z,22.20
2023-05-14T10:46:52.859Z,22.12
2023-05-14T10:47:52.816Z,22.06
2023-05-14T10:48:52.826Z,22.04
2023-05-14T10:49:52.743Z,22.02
2023-05-14T10:50:52.841Z,21.99
2023-05-14T10:51:52.712Z,22.01
2023-05-14T10:52:52.720Z,22.02
2023-05-14T10:53:52.720Z,21.98
2023-05-14T10:54:52.750Z,21.99
2023-05-14T10:55:52.696Z,22.10
2023-05-14T10:56:52.663Z,22.20
2023-05-14T10:57:52.637Z,22.25
2023-05-14T10:58:52.652Z,22.37
2023-05-14T10:59:52.616Z,22.44
2023-05-14T11:00:52.605Z,22.53
2023-05-14T11:01:52.648Z,22.56
2023-05-14T11:02:52.776Z,22.59
2023-05-14T11:03:52.635Z,22.56
2023-05-14T11:04:52.542Z,22.57
2023-05-14T11:05:52.578Z,22.57
2023-05-14T11:06:52.512Z,22.64
2023-05-14T11:07:52.508Z,22.71
2023-05-14T11:08:52.519Z,22.72
2023-05-14T11:09:52.479Z,22.69
2023-05-14T11:10:52.483Z,22.68
2023-05-14T11:11:52.452Z,22.74
2023-05-14T11:12:52.460Z,22.74
2023-05-14T11:13:52.445Z,22.72
2023-05-14T11:14:52.439Z,22.69
2023-05-14T11:15:52.401Z,22.68
2023-05-14T11:16:52.434Z,22.65
2023-05-14T11:17:52.481Z,22.69
2023-05-14T11:18:52.409Z,22.83
2023-05-14T11:19:52.358Z,22.90
2023-05-14T11:20:52.353Z,22.93
2023-05-14T11:21:52.342Z,22.93
2023-05-14T11:22:52.551Z,22.87
2023-05-14T11:23:52.321Z,22.82
2023-05-14T11:24:52.304Z,22.75
2023-05-14T11:25:52.294Z,22.75
2023-05-14T11:26:52.259Z,22.74
2023-05-14T11:27:52.241Z,22.80
2023-05-14T11:28:53.114Z,22.75
2023-05-14T11:29:52.227Z,22.71
2023-05-14T11:30:52.247Z,22.69
2023-05-14T11:31:52.266Z,22.68
2023-05-14T11:32:52.254Z,22.68
2023-05-14T11:33:52.199Z,22.71
2023-05-14T11:34:52.153Z,22.71
2023-05-14T11:35:52.153Z,22.68
2023-05-14T11:36:52.141Z,22.68
2023-05-14T11:37:52.110Z,22.59
2023-05-14T11:38:52.172Z,22.50
2023-05-14T11:39:52.102Z,22.37
2023-05-14T11:40:52.091Z,22.29
2023-05-14T11:41:52.163Z,22.23
2023-05-14T11:42:52.065Z,22.20
2023-05-14T11:43:52.042Z,22.17
2023-05-14T11:44:52.136Z,22.17
2023-05-14T11:45:52.109Z,22.13
2023-05-14T11:46:52.027Z,22.09
2023-05-14T11:47:52.074Z,22.09
2023-05-14T11:48:52.000Z,22.04
2023-05-14T11:49:51.989Z,22.01
2023-05-14T11:50:52.037Z,22.04
2023-05-14T11:51:51.982Z,22.06
2023-05-14T11:52:52.024Z,22.09
2023-05-14T11:53:51.937Z,22.14
2023-05-14T11:54:51.921Z,22.14
2023-05-14T11:55:52.062Z,22.20
2023-05-14T11:56:52.029Z,22.28
2023-05-14T11:57:51.880Z,22.35
2023-05-14T11:58:51.878Z,22.39
2023-05-14T11:59:51.829Z,22.47
2023-05-14T12:00:51.820Z,22.57
2023-05-14T12:01:51.801Z,22.67
2023-05-14T12:02:51.874Z,22.71
2023-05-14T12:03:52.121Z,22.71
2023-05-14T12:04:51.933Z,22.74
2023-05-14T12:05:52.041Z,22.78
2023-05-14T12:06:51.744Z,22.86
2023-05-14T12:07:51.737Z,22.93
2023-05-14T12:08:51.895Z,22.99
2023-05-14T12:09:51.783Z,22.99
2023-05-14T12:10:51.694Z,23.05
2023-05-14T12:11:51.693Z,23.12
2023-05-14T12:12:51.686Z,23.20
2023-05-14T12:13:51.647Z,23.26
2023-05-14T12:14:51.684Z,23.24
2023-05-14T12:15:51.660Z,23.42
2023-05-14T12:16:51.646Z,23.61
2023-05-14T12:17:51.713Z,23.77
2023-05-14T12:18:51.645Z,23.89
2023-05-14T12:19:51.596Z,24.02
2023-05-14T12:20:51.602Z,24.20
2023-05-14T12:21:51.545Z,24.42
2023-05-14T12:22:51.622Z,24.60
2023-05-14T12:23:51.532Z,24.73
2023-05-14T12:24:51.534Z,24.80
2023-05-14T12:25:51.512Z,24.79
2023-05-14T12:26:51.551Z,24.85
2023-05-14T12:27:51.492Z,24.85
2023-05-14T12:28:51.480Z,25.02
2023-05-14T12:29:51.449Z,25.12
2023-05-14T12:30:51.442Z,25.16
2023-05-14T12:31:51.573Z,25.20
2023-05-14T12:32:51.997Z,25.17
2023-05-14T12:33:51.407Z,24.92
2023-05-14T12:34:51.399Z,24.80
2023-05-14T12:35:51.394Z,24.80
2023-05-14T12:36:51.386Z,24.87
2023-05-14T12:37:51.338Z,24.90
2023-05-14T12:38:51.351Z,24.90
2023-05-14T12:39:51.329Z,24.92
2023-05-14T12:40:51.318Z,24.87
2023-05-14T12:41:51.318Z,24.82
2023-05-14T12:42:51.285Z,24.71
2023-05-14T12:43:51.277Z,24.63
2023-05-14T12:44:51.279Z,24.53
2023-05-14T12:45:51.252Z,24.26
2023-05-14T12:46:51.276Z,24.02
2023-05-14T12:47:51.311Z,23.85
2023-05-14T12:48:53.245Z,23.71
2023-05-14T12:49:51.202Z,23.45
2023-05-14T12:50:51.175Z,23.32
2023-05-14T12:51:54.563Z,23.20